Greenough, Montana
Current Conditions -  °F | °C
As of 11:53 AM on Wednesday 26 Nov 2014 (Local Time) from KMSO Reporting Station
Light Rain Light Rain  
Wind Chill: 33°   Ceiling: 4500
Heat Index: 33°   Visibility: 6mi
Dew Point: 33°   Wind: 0mph
Humidity: 100%   Direction: NA
Pressure: 30.19"   Gusts: NA
Location:  47.1°N, 113.36°W
Report Text: KMSO 261853Z 00000KT 6SM -RA BR BKN045 OVC060 01/01 A3019 RMK AO2 UPE13RAB13 SLP252 P0001 T00060006
Loading
Personal Weather Stations






























Interactive Weather Map New forecast layout! Learn more

10-Day Weather Forecast

Advertisements
Track Severe Weather on mobile